Terminal Aerodrome Forecast
Issued by NWS

Home | Current Version | Previous Version | Text Only | Print | Product List | Glossary On
Versions: 1 2 3 4 5 6 7 8 9 10 11 12 13 14 15
000
FTUS46 KSTO 251700
TAFSCK
TAF
KSCK 251727Z 2518/2618 23008KT P6SM -RA OVC035
     FM252100 22011G22KT P6SM VCSH SCT050 BKN200
     FM260200 30005KT P6SM BKN060
     FM261600 30007KT P6SM SCT250=

USA.gov is the U.S. government's official web portal to all federal, state and local government web resources and services.